sensor_id;sensor_type;location;lat;lon;timestamp;pressure;altitude;pressure_sealevel;temperature;humidity
13732;BME280;6937;56.096;12.664;2023-07-20T00:01:13;100263.38;;;15.04;100.00
13732;BME280;6937;56.096;12.664;2023-07-20T00:03:38;100261.41;;;15.06;100.00
13732;BME280;6937;56.096;12.664;2023-07-20T00:06:04;100269.38;;;14.97;100.00
13732;BME280;6937;56.096;12.664;2023-07-20T00:08:30;100285.06;;;15.02;100.00
13732;BME280;6937;56.096;12.664;2023-07-20T00:10:55;100275.91;;;14.95;100.00
13732;BME280;6937;56.096;12.664;2023-07-20T00:13:20;100295.13;;;15.00;100.00
13732;BME280;6937;56.096;12.664;2023-07-20T00:15:46;100297.38;;;15.05;100.00
13732;BME280;6937;56.096;12.664;2023-07-20T00:18:11;100309.00;;;15.05;100.00
13732;BME280;6937;56.096;12.664;2023-07-20T00:20:37;100308.13;;;15.05;100.00
13732;BME280;6937;56.096;12.664;2023-07-20T00:23:02;100307.16;;;15.06;100.00
13732;BME280;6937;56.096;12.664;2023-07-20T00:25:28;100319.63;;;15.07;100.00
13732;BME280;6937;56.096;12.664;2023-07-20T00:27:53;100307.84;;;15.08;100.00
13732;BME280;6937;56.096;12.664;2023-07-20T00:30:18;100302.16;;;15.11;100.00
13732;BME280;6937;56.096;12.664;2023-07-20T00:32:44;100290.69;;;15.09;100.00
13732;BME280;6937;56.096;12.664;2023-07-20T00:35:10;100283.06;;;15.04;100.00
13732;BME280;6937;56.096;12.664;2023-07-20T00:37:36;100295.63;;;15.13;100.00
13732;BME280;6937;56.096;12.664;2023-07-20T00:40:02;100278.09;;;15.09;100.00
13732;BME280;6937;56.096;12.664;2023-07-20T00:42:30;100273.00;;;15.06;100.00
13732;BME280;6937;56.096;12.664;2023-07-20T00:44:56;100262.28;;;14.96;100.00
13732;BME280;6937;56.096;12.664;2023-07-20T00:47:21;100262.28;;;14.96;100.00
13732;BME280;6937;56.096;12.664;2023-07-20T00:49:47;100261.59;;;14.94;100.00
13732;BME280;6937;56.096;12.664;2023-07-20T00:52:13;100245.22;;;14.88;100.00
13732;BME280;6937;56.096;12.664;2023-07-20T00:54:40;100239.44;;;14.83;100.00
13732;BME280;6937;56.096;12.664;2023-07-20T00:57:07;100230.22;;;14.85;100.00
13732;BME280;6937;56.096;12.664;2023-07-20T00:59:34;100230.06;;;14.87;100.00
13732;BME280;6937;56.096;12.664;2023-07-20T01:01:59;100229.66;;;14.82;100.00
13732;BME280;6937;56.096;12.664;2023-07-20T01:04:24;100228.44;;;14.76;100.00
13732;BME280;6937;56.096;12.664;2023-07-20T01:07:08;100224.06;;;14.75;100.00
13732;BME280;6937;56.096;12.664;2023-07-20T01:12:13;100205.84;;;14.69;100.00
13732;BME280;6937;56.096;12.664;2023-07-20T01:14:41;100205.56;;;14.63;100.00
13732;BME280;6937;56.096;12.664;2023-07-20T01:17:06;100196.41;;;14.56;100.00
13732;BME280;6937;56.096;12.664;2023-07-20T01:19:32;100197.69;;;14.61;100.00
13732;BME280;6937;56.096;12.664;2023-07-20T01:22:21;100183.38;;;14.61;100.00
13732;BME280;6937;56.096;12.664;2023-07-20T01:33:24;100153.06;;;14.41;100.00
13732;BME280;6937;56.096;12.664;2023-07-20T01:35:56;100143.47;;;14.38;100.00
13732;BME280;6937;56.096;12.664;2023-07-20T01:38:23;100134.09;;;14.33;100.00
13732;BME280;6937;56.096;12.664;2023-07-20T01:40:50;100138.94;;;14.39;100.00
13732;BME280;6937;56.096;12.664;2023-07-20T01:43:16;100129.03;;;14.39;100.00
13732;BME280;6937;56.096;12.664;2023-07-20T01:45:41;100119.28;;;14.29;100.00
13732;BME280;6937;56.096;12.664;2023-07-20T01:48:07;100119.69;;;14.34;100.00
13732;BME280;6937;56.096;12.664;2023-07-20T01:50:32;100107.22;;;14.33;100.00
13732;BME280;6937;56.096;12.664;2023-07-20T01:52:59;100104.53;;;14.33;100.00
13732;BME280;6937;56.096;12.664;2023-07-20T01:55:25;100100.00;;;14.33;100.00
13732;BME280;6937;56.096;12.664;2023-07-20T01:57:50;100086.75;;;14.32;100.00
13732;BME280;6937;56.096;12.664;2023-07-20T02:00:16;100092.13;;;14.32;100.00
13732;BME280;6937;56.096;12.664;2023-07-20T02:02:44;100083.50;;;14.28;100.00
13732;BME280;6937;56.096;12.664;2023-07-20T02:05:09;100077.41;;;14.26;100.00
13732;BME280;6937;56.096;12.664;2023-07-20T02:07:34;100074.19;;;14.23;100.00
13732;BME280;6937;56.096;12.664;2023-07-20T02:10:00;100056.13;;;14.15;100.00
13732;BME280;6937;56.096;12.664;2023-07-20T02:12:25;100068.97;;;14.21;100.00
13732;BME280;6937;56.096;12.664;2023-07-20T02:14:50;100060.22;;;14.19;100.00
13732;BME280;6937;56.096;12.664;2023-07-20T02:17:16;100051.06;;;14.12;100.00
13732;BME280;6937;56.096;12.664;2023-07-20T02:19:41;100043.16;;;14.11;100.00
13732;BME280;6937;56.096;12.664;2023-07-20T02:22:07;100032.41;;;14.11;100.00
13732;BME280;6937;56.096;12.664;2023-07-20T02:24:33;100018.66;;;14.14;100.00
13732;BME280;6937;56.096;12.664;2023-07-20T02:26:59;100030.66;;;14.19;100.00
13732;BME280;6937;56.096;12.664;2023-07-20T02:29:24;100035.56;;;14.24;100.00
13732;BME280;6937;56.096;12.664;2023-07-20T02:31:50;100034.56;;;14.25;100.00
13732;BME280;6937;56.096;12.664;2023-07-20T02:34:15;100030.34;;;14.22;100.00
13732;BME280;6937;56.096;12.664;2023-07-20T02:36:41;100015.91;;;14.23;100.00
13732;BME280;6937;56.096;12.664;2023-07-20T02:39:08;100004.63;;;14.20;100.00
13732;BME280;6937;56.096;12.664;2023-07-20T02:41:33;100007.09;;;14.31;100.00
13732;BME280;6937;56.096;12.664;2023-07-20T02:43:59;100009.34;;;14.35;100.00
13732;BME280;6937;56.096;12.664;2023-07-20T02:46:25;100013.44;;;14.39;100.00
13732;BME280;6937;56.096;12.664;2023-07-20T02:48:50;100011.28;;;14.43;100.00
13732;BME280;6937;56.096;12.664;2023-07-20T02:51:16;99985.84;;;14.37;100.00
13732;BME280;6937;56.096;12.664;2023-07-20T02:53:41;99987.91;;;14.43;100.00
13732;BME280;6937;56.096;12.664;2023-07-20T02:56:07;99991.97;;;14.47;100.00
13732;BME280;6937;56.096;12.664;2023-07-20T02:58:34;99987.97;;;14.51;100.00
13732;BME280;6937;56.096;12.664;2023-07-20T03:01:03;100000.44;;;14.52;100.00
13732;BME280;6937;56.096;12.664;2023-07-20T03:03:29;99997.22;;;14.49;100.00
13732;BME280;6937;56.096;12.664;2023-07-20T03:05:54;99996.53;;;14.47;100.00
13732;BME280;6937;56.096;12.664;2023-07-20T03:08:21;99986.75;;;14.46;100.00
13732;BME280;6937;56.096;12.664;2023-07-20T03:10:47;99992.47;;;14.43;100.00
13732;BME280;6937;56.096;12.664;2023-07-20T03:13:12;99985.38;;;14.42;100.00
13732;BME280;6937;56.096;12.664;2023-07-20T03:15:39;99980.47;;;14.37;100.00
13732;BME280;6937;56.096;12.664;2023-07-20T03:18:04;99986.38;;;14.41;100.00
13732;BME280;6937;56.096;12.664;2023-07-20T03:20:31;99972.09;;;14.40;100.00
13732;BME280;6937;56.096;12.664;2023-07-20T03:22:56;99971.41;;;14.38;100.00
13732;BME280;6937;56.096;12.664;2023-07-20T03:25:21;99977.63;;;14.39;100.00
13732;BME280;6937;56.096;12.664;2023-07-20T03:27:47;99981.31;;;14.38;100.00
13732;BME280;6937;56.096;12.664;2023-07-20T03:30:13;99971.53;;;14.37;100.00
13732;BME280;6937;56.096;12.664;2023-07-20T03:32:38;99962.56;;;14.28;100.00
13732;BME280;6937;56.096;12.664;2023-07-20T03:35:04;99969.72;;;14.37;100.00
13732;BME280;6937;56.096;12.664;2023-07-20T03:37:29;99972.25;;;14.39;100.00
13732;BME280;6937;56.096;12.664;2023-07-20T03:39:55;99958.41;;;14.34;100.00
13732;BME280;6937;56.096;12.664;2023-07-20T03:42:20;99977.84;;;14.45;100.00
13732;BME280;6937;56.096;12.664;2023-07-20T03:44:46;99971.53;;;14.37;100.00
13732;BME280;6937;56.096;12.664;2023-07-20T03:47:11;99975.94;;;14.38;100.00
13732;BME280;6937;56.096;12.664;2023-07-20T03:49:36;99970.13;;;14.33;100.00
13732;BME280;6937;56.096;12.664;2023-07-20T03:52:03;99959.88;;;14.28;100.00
13732;BME280;6937;56.096;12.664;2023-07-20T03:54:29;99962.91;;;14.33;100.00
13732;BME280;6937;56.096;12.664;2023-07-20T03:56:54;99958.28;;;14.35;100.00
13732;BME280;6937;56.096;12.664;2023-07-20T03:59:20;99958.97;;;14.37;100.00
13732;BME280;6937;56.096;12.664;2023-07-20T04:01:45;99959.28;;;14.34;100.00
13732;BME280;6937;56.096;12.664;2023-07-20T04:04:10;99955.03;;;14.32;100.00
13732;BME280;6937;56.096;12.664;2023-07-20T04:06:36;99950.66;;;14.31;100.00
13732;BME280;6937;56.096;12.664;2023-07-20T04:09:03;99950.31;;;14.34;100.00
13732;BME280;6937;56.096;12.664;2023-07-20T04:11:29;99955.59;;;14.35;100.00
13732;BME280;6937;56.096;12.664;2023-07-20T04:13:55;99953.00;;;14.34;100.00
13732;BME280;6937;56.096;12.664;2023-07-20T04:16:21;99952.91;;;14.35;100.00
13732;BME280;6937;56.096;12.664;2023-07-20T04:18:46;99951.59;;;14.39;100.00
13732;BME280;6937;56.096;12.664;2023-07-20T04:21:12;99962.34;;;14.39;100.00
13732;BME280;6937;56.096;12.664;2023-07-20T04:23:37;99958.09;;;14.37;100.00
13732;BME280;6937;56.096;12.664;2023-07-20T04:26:03;99962.06;;;14.33;100.00
13732;BME280;6937;56.096;12.664;2023-07-20T04:28:28;99972.81;;;14.33;100.00
13732;BME280;6937;56.096;12.664;2023-07-20T04:30:53;99967.94;;;14.28;100.00
13732;BME280;6937;56.096;12.664;2023-07-20T04:33:19;99974.66;;;14.32;100.00
13732;BME280;6937;56.096;12.664;2023-07-20T04:35:51;99986.56;;;14.30;100.00
13732;BME280;6937;56.096;12.664;2023-07-20T04:38:17;99989.25;;;14.30;100.00
13732;BME280;6937;56.096;12.664;2023-07-20T04:40:47;99976.00;;;14.28;100.00
13732;BME280;6937;56.096;12.664;2023-07-20T04:43:13;99990.53;;;14.35;100.00
13732;BME280;6937;56.096;12.664;2023-07-20T04:45:39;99990.66;;;14.34;100.00
13732;BME280;6937;56.096;12.664;2023-07-20T04:48:15;99987.38;;;14.40;100.00
13732;BME280;6937;56.096;12.664;2023-07-20T04:50:41;99975.16;;;14.28;100.00
13732;BME280;6937;56.096;12.664;2023-07-20T04:53:08;100005.38;;;14.39;100.00
13732;BME280;6937;56.096;12.664;2023-07-20T04:55:33;100009.41;;;14.43;100.00
13732;BME280;6937;56.096;12.664;2023-07-20T04:58:00;100003.13;;;14.52;100.00
13732;BME280;6937;56.096;12.664;2023-07-20T05:00:26;100004.19;;;14.60;100.00
13732;BME280;6937;56.096;12.664;2023-07-20T05:02:51;100003.72;;;14.64;100.00
13732;BME280;6937;56.096;12.664;2023-07-20T05:05:16;100017.38;;;14.71;100.00
13732;BME280;6937;56.096;12.664;2023-07-20T05:07:42;100032.75;;;14.78;100.00
13732;BME280;6937;56.096;12.664;2023-07-20T05:10:07;100022.97;;;14.77;100.00
13732;BME280;6937;56.096;12.664;2023-07-20T05:12:33;100041.75;;;14.87;100.00
13732;BME280;6937;56.096;12.664;2023-07-20T05:14:58;100044.97;;;14.90;100.00
13732;BME280;6937;56.096;12.664;2023-07-20T05:17:23;100054.94;;;14.98;100.00
13732;BME280;6937;56.096;12.664;2023-07-20T05:19:50;100056.16;;;15.04;100.00
13732;BME280;6937;56.096;12.664;2023-07-20T05:22:16;100059.59;;;15.14;100.00
13732;BME280;6937;56.096;12.664;2023-07-20T05:24:41;100071.75;;;15.18;100.00
13732;BME280;6937;56.096;12.664;2023-07-20T05:27:06;100079.13;;;15.16;100.00
13732;BME280;6937;56.096;12.664;2023-07-20T05:29:32;100079.44;;;15.13;100.00
13732;BME280;6937;56.096;12.664;2023-07-20T05:31:58;100085.34;;;15.16;100.00
13732;BME280;6937;56.096;12.664;2023-07-20T05:34:23;100086.53;;;15.14;100.00
13732;BME280;6937;56.096;12.664;2023-07-20T05:36:49;100082.34;;;15.19;100.00
13732;BME280;6937;56.096;12.664;2023-07-20T05:39:16;100076.34;;;15.25;100.00
13732;BME280;6937;56.096;12.664;2023-07-20T05:41:42;100090.09;;;15.22;100.00
13732;BME280;6937;56.096;12.664;2023-07-20T05:44:07;100087.06;;;15.17;100.00
13732;BME280;6937;56.096;12.664;2023-07-20T05:46:33;100078.13;;;15.17;100.00
13732;BME280;6937;56.096;12.664;2023-07-20T05:48:58;100090.09;;;15.22;100.00
13732;BME280;6937;56.096;12.664;2023-07-20T05:51:23;100094.03;;;15.28;100.00
13732;BME280;6937;56.096;12.664;2023-07-20T05:53:49;100089.91;;;15.41;100.00
13732;BME280;6937;56.096;12.664;2023-07-20T05:56:14;100092.84;;;15.48;100.00
13732;BME280;6937;56.096;12.664;2023-07-20T05:58:39;100099.22;;;15.47;100.00
13732;BME280;6937;56.096;12.664;2023-07-20T06:01:05;100105.59;;;15.46;100.00
13732;BME280;6937;56.096;12.664;2023-07-20T06:03:32;100107.28;;;15.47;100.00
13732;BME280;6937;56.096;12.664;2023-07-20T06:06:01;100103.19;;;15.61;100.00
13732;BME280;6937;56.096;12.664;2023-07-20T06:08:28;100107.97;;;15.75;100.00
13732;BME280;6937;56.096;12.664;2023-07-20T06:10:54;100103.53;;;15.91;100.00
13732;BME280;6937;56.096;12.664;2023-07-20T06:13:20;100117.84;;;15.92;100.00
13732;BME280;6937;56.096;12.664;2023-07-20T06:15:45;100131.44;;;15.82;100.00
13732;BME280;6937;56.096;12.664;2023-07-20T06:18:10;100143.38;;;15.80;100.00
13732;BME280;6937;56.096;12.664;2023-07-20T06:20:36;100138.69;;;15.56;100.00
13732;BME280;6937;56.096;12.664;2023-07-20T06:23:01;100130.56;;;15.30;100.00
13732;BME280;6937;56.096;12.664;2023-07-20T06:25:27;100099.44;;;15.10;100.00
13732;BME280;6937;56.096;12.664;2023-07-20T06:27:52;100093.81;;;15.04;100.00
13732;BME280;6937;56.096;12.664;2023-07-20T06:30:19;100070.94;;;14.99;100.00
13732;BME280;6937;56.096;12.664;2023-07-20T06:32:44;100057.50;;;14.99;100.00
13732;BME280;6937;56.096;12.664;2023-07-20T06:35:10;100032.88;;;14.94;100.00
13732;BME280;6937;56.096;12.664;2023-07-20T06:37:35;100035.31;;;15.06;100.00
13732;BME280;6937;56.096;12.664;2023-07-20T06:40:02;100011.84;;;15.16;100.00
13732;BME280;6937;56.096;12.664;2023-07-20T06:42:29;99998.28;;;15.25;100.00
13732;BME280;6937;56.096;12.664;2023-07-20T06:44:56;99985.59;;;15.43;100.00
13732;BME280;6937;56.096;12.664;2023-07-20T06:47:21;99979.72;;;15.48;100.00
13732;BME280;6937;56.096;12.664;2023-07-20T06:49:47;99989.53;;;15.57;100.00
13732;BME280;6937;56.096;12.664;2023-07-20T06:52:12;99993.94;;;15.58;100.00
13732;BME280;6937;56.096;12.664;2023-07-20T06:54:38;100006.69;;;15.56;100.00
13732;BME280;6937;56.096;12.664;2023-07-20T06:57:04;100001.41;;;15.46;100.00
13732;BME280;6937;56.096;12.664;2023-07-20T06:59:30;100048.47;;;15.52;100.00
13732;BME280;6937;56.096;12.664;2023-07-20T07:01:55;100043.50;;;15.47;100.00
13732;BME280;6937;56.096;12.664;2023-07-20T07:04:21;100033.69;;;15.38;100.00
13732;BME280;6937;56.096;12.664;2023-07-20T07:06:46;100045.03;;;15.24;100.00
13732;BME280;6937;56.096;12.664;2023-07-20T07:09:11;100054.63;;;15.27;100.00
13732;BME280;6937;56.096;12.664;2023-07-20T07:11:37;100056.97;;;15.22;100.00
13732;BME280;6937;56.096;12.664;2023-07-20T07:14:02;100074.13;;;15.21;100.00
13732;BME280;6937;56.096;12.664;2023-07-20T07:16:28;100078.41;;;15.31;100.00
13732;BME280;6937;56.096;12.664;2023-07-20T07:18:53;100100.50;;;15.61;100.00
13732;BME280;6937;56.096;12.664;2023-07-20T07:21:19;100100.75;;;15.75;100.00
13732;BME280;6937;56.096;12.664;2023-07-20T07:23:45;100106.09;;;15.67;100.00
13732;BME280;6937;56.096;12.664;2023-07-20T07:26:11;100133.16;;;15.58;100.00
13732;BME280;6937;56.096;12.664;2023-07-20T07:28:37;100144.81;;;15.48;100.00
13732;BME280;6937;56.096;12.664;2023-07-20T07:31:05;100145.44;;;15.60;100.00
13732;BME280;6937;56.096;12.664;2023-07-20T07:33:31;100158.66;;;15.71;100.00
13732;BME280;6937;56.096;12.664;2023-07-20T07:35:57;100172.56;;;15.84;100.00
13732;BME280;6937;56.096;12.664;2023-07-20T07:38:23;100174.13;;;15.95;100.00
13732;BME280;6937;56.096;12.664;2023-07-20T07:40:48;100178.91;;;16.09;100.00
13732;BME280;6937;56.096;12.664;2023-07-20T07:43:13;100202.38;;;16.17;100.00
13732;BME280;6937;56.096;12.664;2023-07-20T07:45:39;100201.91;;;16.21;100.00
13732;BME280;6937;56.096;12.664;2023-07-20T07:48:06;100223.81;;;16.18;100.00
13732;BME280;6937;56.096;12.664;2023-07-20T07:50:32;100227.34;;;16.19;100.00
13732;BME280;6937;56.096;12.664;2023-07-20T07:52:58;100243.06;;;16.31;100.00
13732;BME280;6937;56.096;12.664;2023-07-20T07:55:24;100239.75;;;16.37;100.00
13732;BME280;6937;56.096;12.664;2023-07-20T07:57:52;100283.00;;;16.28;100.00
13732;BME280;6937;56.096;12.664;2023-07-20T08:00:19;100268.66;;;16.27;100.00
13732;BME280;6937;56.096;12.664;2023-07-20T08:02:45;100283.91;;;16.36;100.00
13732;BME280;6937;56.096;12.664;2023-07-20T08:05:13;100299.03;;;16.55;100.00
13732;BME280;6937;56.096;12.664;2023-07-20T08:07:39;100305.00;;;16.67;100.00
13732;BME280;6937;56.096;12.664;2023-07-20T08:10:05;100311.13;;;16.51;100.00
13732;BME280;6937;56.096;12.664;2023-07-20T08:12:31;100323.00;;;16.58;100.00
13732;BME280;6937;56.096;12.664;2023-07-20T08:14:57;100322.69;;;16.61;100.00
13732;BME280;6937;56.096;12.664;2023-07-20T08:17:22;100328.69;;;16.55;100.00
13732;BME280;6937;56.096;12.664;2023-07-20T08:19:47;100326.78;;;16.48;100.00
13732;BME280;6937;56.096;12.664;2023-07-20T08:22:13;100342.06;;;16.57;100.00
13732;BME280;6937;56.096;12.664;2023-07-20T08:24:42;100335.50;;;16.59;100.00
13732;BME280;6937;56.096;12.664;2023-07-20T08:27:08;100356.84;;;16.53;100.00
13732;BME280;6937;56.096;12.664;2023-07-20T08:29:37;100363.38;;;16.50;100.00
13732;BME280;6937;56.096;12.664;2023-07-20T08:32:03;100354.75;;;16.47;100.00
13732;BME280;6937;56.096;12.664;2023-07-20T08:34:29;100363.66;;;16.39;100.00
13732;BME280;6937;56.096;12.664;2023-07-20T08:36:55;100360.94;;;16.39;100.00
13732;BME280;6937;56.096;12.664;2023-07-20T08:39:21;100344.34;;;16.52;100.00
13732;BME280;6937;56.096;12.664;2023-07-20T08:41:48;100382.78;;;16.71;100.00
13732;BME280;6937;56.096;12.664;2023-07-20T08:44:13;100365.19;;;16.93;100.00
13732;BME280;6937;56.096;12.664;2023-07-20T08:46:40;100368.47;;;17.05;100.00
13732;BME280;6937;56.096;12.664;2023-07-20T08:49:06;100361.00;;;16.99;100.00
13732;BME280;6937;56.096;12.664;2023-07-20T08:51:32;100380.50;;;16.84;100.00
13732;BME280;6937;56.096;12.664;2023-07-20T08:53:59;100401.84;;;16.70;100.00
13732;BME280;6937;56.096;12.664;2023-07-20T08:56:25;100381.81;;;16.55;100.00
13732;BME280;6937;56.096;12.664;2023-07-20T08:58:53;100385.44;;;16.63;100.00
13732;BME280;6937;56.096;12.664;2023-07-20T09:01:19;100387.88;;;16.74;100.00
13732;BME280;6937;56.096;12.664;2023-07-20T09:03:45;100388.44;;;16.86;100.00
13732;BME280;6937;56.096;12.664;2023-07-20T09:06:12;100405.94;;;17.08;100.00
13732;BME280;6937;56.096;12.664;2023-07-20T09:08:39;100395.66;;;17.11;100.00
13732;BME280;6937;56.096;12.664;2023-07-20T09:11:04;100422.84;;;17.18;100.00
13732;BME280;6937;56.096;12.664;2023-07-20T09:13:29;100429.28;;;17.25;100.00
13732;BME280;6937;56.096;12.664;2023-07-20T09:15:55;100416.84;;;17.32;100.00
13732;BME280;6937;56.096;12.664;2023-07-20T09:18:38;100421.09;;;17.34;100.00
13732;BME280;6937;56.096;12.664;2023-07-20T09:21:05;100427.41;;;17.17;100.00
13732;BME280;6937;56.096;12.664;2023-07-20T09:23:37;100442.75;;;17.09;100.00
13732;BME280;6937;56.096;12.664;2023-07-20T09:26:11;100440.75;;;17.19;100.00
13732;BME280;6937;56.096;12.664;2023-07-20T09:28:57;100454.94;;;17.21;100.00
13732;BME280;6937;56.096;12.664;2023-07-20T09:31:23;100464.78;;;17.30;100.00
13732;BME280;6937;56.096;12.664;2023-07-20T09:33:49;100471.69;;;17.24;100.00
13732;BME280;6937;56.096;12.664;2023-07-20T09:36:15;100471.22;;;17.37;100.00
13732;BME280;6937;56.096;12.664;2023-07-20T09:38:44;100475.13;;;17.34;100.00
13732;BME280;6937;56.096;12.664;2023-07-20T09:41:15;100475.63;;;17.38;100.00
13732;BME280;6937;56.096;12.664;2023-07-20T09:43:43;100483.94;;;17.45;100.00
13732;BME280;6937;56.096;12.664;2023-07-20T09:46:10;100493.56;;;17.47;100.00
13732;BME280;6937;56.096;12.664;2023-07-20T09:48:35;100509.78;;;17.47;100.00
13732;BME280;6937;56.096;12.664;2023-07-20T09:51:01;100506.91;;;17.49;100.00
13732;BME280;6937;56.096;12.664;2023-07-20T09:53:27;100517.81;;;17.57;100.00
13732;BME280;6937;56.096;12.664;2023-07-20T09:55:53;100507.78;;;17.49;100.00
13732;BME280;6937;56.096;12.664;2023-07-20T09:58:19;100520.63;;;17.55;100.00
13732;BME280;6937;56.096;12.664;2023-07-20T10:00:46;100524.63;;;17.69;100.00
13732;BME280;6937;56.096;12.664;2023-07-20T10:03:20;100512.28;;;17.74;100.00
13732;BME280;6937;56.096;12.664;2023-07-20T10:05:55;100519.22;;;17.69;100.00
13732;BME280;6937;56.096;12.664;2023-07-20T10:08:24;100519.47;;;18.00;100.00
13732;BME280;6937;56.096;12.664;2023-07-20T10:10:50;100517.50;;;18.10;100.00
13732;BME280;6937;56.096;12.664;2023-07-20T10:13:18;100499.41;;;18.18;100.00
13732;BME280;6937;56.096;12.664;2023-07-20T10:15:50;100500.25;;;18.19;100.00
13732;BME280;6937;56.096;12.664;2023-07-20T10:21:06;100512.78;;;18.28;100.00
13732;BME280;6937;56.096;12.664;2023-07-20T10:23:33;100504.66;;;18.20;100.00
13732;BME280;6937;56.096;12.664;2023-07-20T10:26:01;100505.84;;;18.17;100.00
13732;BME280;6937;56.096;12.664;2023-07-20T10:28:27;100497.53;;;18.19;100.00
13732;BME280;6937;56.096;12.664;2023-07-20T10:30:53;100510.94;;;18.28;100.00
13732;BME280;6937;56.096;12.664;2023-07-20T10:33:18;100505.88;;;18.25;100.00
13732;BME280;6937;56.096;12.664;2023-07-20T10:35:55;100513.66;;;18.28;100.00
13732;BME280;6937;56.096;12.664;2023-07-20T10:38:54;100519.72;;;18.30;100.00
13732;BME280;6937;56.096;12.664;2023-07-20T10:41:21;100527.50;;;18.25;100.00
13732;BME280;6937;56.096;12.664;2023-07-20T10:43:47;100535.47;;;18.43;100.00
13732;BME280;6937;56.096;12.664;2023-07-20T10:46:13;100531.06;;;18.34;100.00
13732;BME280;6937;56.096;12.664;2023-07-20T10:49:02;100537.50;;;18.41;100.00
13732;BME280;6937;56.096;12.664;2023-07-20T10:51:28;100542.56;;;18.36;100.00
13732;BME280;6937;56.096;12.664;2023-07-20T10:53:55;100533.75;;;18.34;100.00
13732;BME280;6937;56.096;12.664;2023-07-20T10:56:26;100545.94;;;18.38;100.00
13732;BME280;6937;56.096;12.664;2023-07-20T10:58:58;100538.41;;;18.58;100.00
13732;BME280;6937;56.096;12.664;2023-07-20T11:01:29;100540.78;;;18.69;100.00
13732;BME280;6937;56.096;12.664;2023-07-20T11:03:58;100546.88;;;18.63;100.00
13732;BME280;6937;56.096;12.664;2023-07-20T11:09:09;100558.13;;;18.42;100.00
13732;BME280;6937;56.096;12.664;2023-07-20T11:11:37;100546.81;;;18.47;100.00
13732;BME280;6937;56.096;12.664;2023-07-20T11:14:07;100556.34;;;18.59;100.00
13732;BME280;6937;56.096;12.664;2023-07-20T11:19:05;100565.81;;;18.71;100.00
13732;BME280;6937;56.096;12.664;2023-07-20T11:21:37;100550.91;;;18.75;100.00
13732;BME280;6937;56.096;12.664;2023-07-20T11:24:06;100550.59;;;18.70;100.00
13732;BME280;6937;56.096;12.664;2023-07-20T11:27:08;100535.38;;;18.77;100.00
13732;BME280;6937;56.096;12.664;2023-07-20T11:29:34;100546.72;;;18.80;100.00
13732;BME280;6937;56.096;12.664;2023-07-20T11:32:01;100540.09;;;18.75;100.00
13732;BME280;6937;56.096;12.664;2023-07-20T11:34:30;100528.75;;;18.71;100.00
13732;BME280;6937;56.096;12.664;2023-07-20T11:36:56;100543.47;;;18.61;100.00
13732;BME280;6937;56.096;12.664;2023-07-20T11:39:22;100548.72;;;18.54;100.00
13732;BME280;6937;56.096;12.664;2023-07-20T11:41:49;100533.78;;;18.50;100.00
13732;BME280;6937;56.096;12.664;2023-07-20T11:44:18;100524.81;;;18.50;100.00
13732;BME280;6937;56.096;12.664;2023-07-20T11:46:44;100528.72;;;18.39;100.00
13732;BME280;6937;56.096;12.664;2023-07-20T11:49:11;100526.53;;;18.51;100.00
13732;BME280;6937;56.096;12.664;2023-07-20T11:51:37;100525.88;;;18.65;100.00
13732;BME280;6937;56.096;12.664;2023-07-20T11:54:04;100515.06;;;18.73;100.00
13732;BME280;6937;56.096;12.664;2023-07-20T11:56:30;100535.38;;;18.85;100.00
13732;BME280;6937;56.096;12.664;2023-07-20T11:58:57;100519.44;;;18.82;100.00
13732;BME280;6937;56.096;12.664;2023-07-20T12:01:25;100522.13;;;19.06;100.00
13732;BME280;6937;56.096;12.664;2023-07-20T12:03:55;100526.34;;;19.17;100.00
13732;BME280;6937;56.096;12.664;2023-07-20T12:06:23;100514.34;;;19.11;100.00
13732;BME280;6937;56.096;12.664;2023-07-20T12:08:50;100519.22;;;19.16;100.00
13732;BME280;6937;56.096;12.664;2023-07-20T12:11:36;100522.97;;;19.23;100.00
13732;BME280;6937;56.096;12.664;2023-07-20T12:14:03;100547.16;;;19.41;100.00
13732;BME280;6937;56.096;12.664;2023-07-20T12:16:30;100545.09;;;19.35;100.00
13732;BME280;6937;56.096;12.664;2023-07-20T12:19:06;100541.06;;;19.47;100.00
13732;BME280;6937;56.096;12.664;2023-07-20T12:21:34;100539.88;;;19.33;100.00
13732;BME280;6937;56.096;12.664;2023-07-20T12:23:59;100556.16;;;19.25;100.00
13732;BME280;6937;56.096;12.664;2023-07-20T12:26:25;100548.22;;;19.15;100.00
13732;BME280;6937;56.096;12.664;2023-07-20T12:28:52;100548.88;;;19.01;100.00
13732;BME280;6937;56.096;12.664;2023-07-20T12:31:18;100540.94;;;18.92;100.00
13732;BME280;6937;56.096;12.664;2023-07-20T12:33:43;100530.28;;;18.98;100.00
13732;BME280;6937;56.096;12.664;2023-07-20T12:36:09;100510.31;;;18.75;100.00
13732;BME280;6937;56.096;12.664;2023-07-20T12:38:35;100507.06;;;18.39;100.00
13732;BME280;6937;56.096;12.664;2023-07-20T12:41:01;100501.44;;;18.16;100.00
13732;BME280;6937;56.096;12.664;2023-07-20T12:43:27;100487.75;;;18.10;100.00
13732;BME280;6937;56.096;12.664;2023-07-20T12:45:52;100491.97;;;18.12;100.00
13732;BME280;6937;56.096;12.664;2023-07-20T12:48:18;100502.16;;;18.43;100.00
13732;BME280;6937;56.096;12.664;2023-07-20T12:50:43;100499.50;;;18.67;100.00
13732;BME280;6937;56.096;12.664;2023-07-20T12:53:08;100518.09;;;19.02;100.00
13732;BME280;6937;56.096;12.664;2023-07-20T12:55:34;100513.50;;;19.19;100.00
13732;BME280;6937;56.096;12.664;2023-07-20T12:57:59;100532.63;;;19.09;100.00
13732;BME280;6937;56.096;12.664;2023-07-20T13:00:25;100521.66;;;18.95;100.00